createdAt,value
2022-11-14T00:01:24.245Z,64.37
2022-11-14T00:03:52.045Z,60.13
2022-11-14T00:06:19.809Z,62.27
2022-11-14T00:08:48.676Z,56.40
2022-11-14T00:11:16.213Z,62.73
2022-11-14T00:13:43.755Z,63.60
2022-11-14T00:16:11.306Z,66.27
2022-11-14T00:18:38.813Z,67.60
2022-11-14T00:21:06.462Z,60.93
2022-11-14T00:23:34.011Z,63.03
2022-11-14T00:26:02.878Z,68.10
2022-11-14T00:28:30.745Z,62.70
2022-11-14T00:30:58.433Z,63.53
2022-11-14T00:33:26.019Z,64.43
2022-11-14T00:35:54.849Z,65.67
2022-11-14T00:38:23.057Z,65.00
2022-11-14T00:40:50.806Z,60.03
2022-11-14T00:43:19.906Z,65.57
2022-11-14T00:45:48.549Z,69.07
2022-11-14T00:48:16.541Z,70.27
2022-11-14T00:50:44.679Z,65.80
2022-11-14T00:53:12.343Z,62.37
2022-11-14T00:55:40.164Z,59.07
2022-11-14T00:58:07.704Z,55.47
2022-11-14T01:00:37.030Z,57.57
2022-11-14T01:03:05.033Z,57.77
2022-11-14T01:05:32.559Z,55.97
2022-11-14T01:08:00.123Z,55.30
2022-11-14T01:10:27.731Z,56.47
2022-11-14T01:12:55.296Z,57.53
2022-11-14T01:15:22.848Z,58.57
2022-11-14T01:17:51.721Z,64.20
2022-11-14T01:20:19.436Z,52.87
2022-11-14T01:22:46.958Z,59.43
2022-11-14T01:25:14.522Z,63.37
2022-11-14T01:27:42.052Z,69.80
2022-11-14T01:30:10.171Z,67.53
2022-11-14T01:32:37.743Z,70.00
2022-11-14T01:35:07.109Z,73.40
2022-11-14T01:37:34.635Z,72.40
2022-11-14T01:40:02.155Z,74.50
2022-11-14T01:42:29.678Z,62.70
2022-11-14T01:44:57.193Z,67.27
2022-11-14T01:47:29.975Z,63.87
2022-11-14T01:50:00.532Z,67.07
2022-11-14T01:52:34.364Z,72.50
2022-11-14T01:55:04.066Z,76.80
2022-11-14T01:57:36.386Z,73.97
2022-11-14T02:00:15.902Z,74.17
2022-11-14T02:02:44.807Z,78.07
2022-11-14T02:05:15.550Z,76.23
2022-11-14T02:07:44.416Z,81.63
2022-11-14T02:10:18.223Z,73.37
2022-11-14T02:12:47.163Z,82.13
2022-11-14T02:15:15.725Z,78.43
2022-11-14T02:17:44.914Z,74.87
2022-11-14T02:20:20.182Z,74.17
2022-11-14T02:22:47.722Z,75.17
2022-11-14T02:25:18.942Z,74.27
2022-11-14T02:27:46.494Z,76.50
2022-11-14T02:30:17.851Z,77.47
2022-11-14T02:33:09.615Z,72.97
2022-11-14T02:35:34.528Z,81.50
2022-11-14T02:38:02.058Z,82.37
2022-11-14T02:40:29.589Z,87.50
2022-11-14T02:42:57.110Z,77.10
2022-11-14T02:45:25.002Z,73.63
2022-11-14T02:47:52.518Z,75.00
2022-11-14T02:50:20.107Z,76.80
2022-11-14T02:52:49.142Z,73.80
2022-11-14T02:55:16.904Z,79.27
2022-11-14T02:57:44.416Z,80.40
2022-11-14T03:00:15.088Z,86.63
2022-11-14T03:02:42.982Z,81.30
2022-11-14T03:05:10.744Z,66.80
2022-11-14T03:07:38.335Z,58.90
2022-11-14T03:10:09.522Z,59.57
2022-11-14T03:12:37.184Z,65.87
2022-11-14T03:15:05.906Z,66.93
2022-11-14T03:17:33.834Z,70.83
2022-11-14T03:20:01.596Z,68.00
2022-11-14T03:22:29.299Z,66.20
2022-11-14T03:24:56.815Z,74.20
2022-11-14T03:27:25.686Z,66.80
2022-11-14T03:29:53.186Z,62.27
2022-11-14T03:32:20.741Z,67.63
2022-11-14T03:34:48.260Z,64.73
2022-11-14T03:37:15.866Z,67.63
2022-11-14T03:39:43.398Z,65.83
2022-11-14T03:42:10.927Z,62.73
2022-11-14T03:44:40.055Z,65.73
2022-11-14T03:47:07.585Z,67.40
2022-11-14T03:49:35.135Z,74.13
2022-11-14T03:52:02.668Z,74.17
2022-11-14T03:54:30.222Z,70.97
2022-11-14T03:56:57.768Z,74.87
2022-11-14T03:59:25.297Z,70.03
2022-11-14T04:01:54.183Z,64.33
2022-11-14T04:04:21.694Z,66.73
2022-11-14T04:06:49.308Z,68.63
2022-11-14T04:09:16.976Z,61.40
2022-11-14T04:11:44.713Z,65.07
2022-11-14T04:14:12.322Z,68.13
2022-11-14T04:16:39.831Z,67.17
2022-11-14T04:19:08.753Z,56.40
2022-11-14T04:21:36.260Z,52.53
2022-11-14T04:24:08.414Z,54.50
2022-11-14T04:26:38.408Z,47.37
2022-11-14T04:29:05.915Z,45.50
2022-11-14T04:31:33.430Z,44.30
2022-11-14T04:34:01.002Z,45.57
2022-11-14T04:36:29.856Z,44.13
2022-11-14T04:38:57.600Z,43.07
2022-11-14T04:41:25.127Z,76.00
2022-11-14T04:43:52.647Z,47.83
2022-11-14T04:46:20.177Z,42.47
2022-11-14T04:48:47.660Z,42.97
2022-11-14T04:51:15.182Z,39.93
2022-11-14T04:53:44.059Z,46.23
2022-11-14T04:56:11.610Z,45.20
2022-11-14T04:58:39.582Z,71.80
2022-11-14T05:01:10.414Z,59.00
2022-11-14T05:03:38.346Z,57.03
2022-11-14T05:06:06.268Z,49.33
2022-11-14T05:08:33.807Z,49.27
2022-11-14T05:11:02.781Z,36.60
2022-11-14T05:13:30.338Z,37.27
2022-11-14T05:15:59.702Z,41.20
2022-11-14T05:18:27.670Z,40.87
2022-11-14T05:20:59.196Z,33.10
2022-11-14T05:23:26.812Z,59.87
2022-11-14T05:26:02.894Z,48.87
2022-11-14T05:28:30.862Z,51.90
2022-11-14T05:31:02.661Z,47.37
2022-11-14T05:33:30.624Z,49.00
2022-11-14T05:36:02.330Z,45.33
2022-11-14T05:38:30.147Z,41.77
2022-11-14T05:40:57.736Z,43.83
2022-11-14T05:43:29.878Z,42.47
2022-11-14T05:46:00.404Z,41.33
2022-11-14T05:48:28.319Z,41.23
2022-11-14T05:50:56.507Z,40.10
2022-11-14T05:53:24.106Z,41.57
2022-11-14T05:55:51.643Z,54.93
2022-11-14T05:58:19.202Z,44.77
2022-11-14T06:00:53.936Z,45.17
2022-11-14T06:03:21.982Z,45.33
2022-11-14T06:05:49.507Z,42.90
2022-11-14T06:08:17.026Z,38.60
2022-11-14T06:10:44.533Z,39.73
2022-11-14T06:13:12.053Z,40.63
2022-11-14T06:15:39.570Z,40.27
2022-11-14T06:18:08.504Z,38.97
2022-11-14T06:20:37.512Z,45.07
2022-11-14T06:23:05.066Z,46.03
2022-11-14T06:25:32.614Z,50.03
2022-11-14T06:28:00.398Z,56.63
2022-11-14T06:30:27.919Z,60.23
2022-11-14T06:32:58.000Z,44.70
2022-11-14T06:35:26.908Z,36.27
2022-11-14T06:37:54.806Z,43.83
2022-11-14T06:40:22.342Z,46.90
2022-11-14T06:42:49.879Z,42.03
2022-11-14T06:45:17.720Z,45.77
2022-11-14T06:47:45.275Z,45.00
2022-11-14T06:50:12.782Z,40.17
2022-11-14T06:52:41.627Z,49.30
2022-11-14T06:55:09.384Z,52.10
2022-11-14T06:57:36.891Z,45.90
2022-11-14T07:00:05.175Z,50.07
2022-11-14T07:02:32.662Z,51.77
2022-11-14T07:05:00.183Z,57.73
2022-11-14T07:07:28.843Z,71.33
2022-11-14T07:09:58.771Z,64.80
2022-11-14T07:12:26.278Z,53.80
2022-11-14T07:14:53.796Z,62.97
2022-11-14T07:17:21.313Z,74.47
2022-11-14T07:19:48.838Z,76.43
2022-11-14T07:22:16.449Z,54.53
2022-11-14T07:24:43.945Z,96.03
2022-11-14T07:27:12.753Z,115.07
2022-11-14T07:29:40.259Z,101.63
2022-11-14T07:32:07.841Z,107.40
2022-11-14T07:34:35.347Z,94.43
2022-11-14T07:37:02.916Z,54.87
2022-11-14T07:39:30.451Z,68.23
2022-11-14T07:41:57.963Z,62.23
2022-11-14T07:44:26.796Z,90.53
2022-11-14T07:46:54.296Z,77.00
2022-11-14T07:49:21.786Z,49.43
2022-11-14T07:51:49.327Z,37.80
2022-11-14T07:54:16.821Z,43.63
2022-11-14T07:56:44.349Z,37.97
2022-11-14T07:59:11.930Z,31.27
2022-11-14T08:01:41.075Z,31.90
2022-11-14T08:04:08.588Z,61.30
2022-11-14T08:06:36.108Z,42.50
2022-11-14T08:09:03.662Z,34.43
2022-11-14T08:11:49.303Z,22.40
2022-11-14T08:14:17.364Z,24.13
2022-11-14T08:16:46.238Z,22.05
2022-11-14T08:19:13.806Z,25.38
2022-11-14T08:21:41.316Z,29.13
2022-11-14T08:24:09.682Z,23.35
2022-11-14T08:26:37.228Z,19.02
2022-11-14T08:29:04.761Z,13.23
2022-11-14T08:31:32.287Z,12.27
2022-11-14T08:34:01.130Z,20.77
2022-11-14T08:36:28.690Z,23.60
2022-11-14T08:39:01.611Z,13.70
2022-11-14T08:41:29.670Z,14.30
2022-11-14T08:43:57.271Z,22.35
2022-11-14T08:46:24.824Z,20.85
2022-11-14T08:48:52.319Z,19.73
2022-11-14T08:51:21.168Z,20.83
2022-11-14T08:53:48.669Z,21.48
2022-11-14T08:56:16.182Z,16.77
2022-11-14T08:58:43.680Z,15.30
2022-11-14T09:01:11.770Z,17.13
2022-11-14T09:03:39.497Z,21.70
2022-11-14T09:06:07.429Z,20.63
2022-11-14T09:08:36.285Z,18.60
2022-11-14T09:11:09.223Z,19.30
2022-11-14T09:13:37.560Z,16.77
2022-11-14T09:16:05.462Z,12.75
2022-11-14T09:18:33.356Z,13.43
2022-11-14T09:21:02.249Z,13.27
2022-11-14T09:23:30.180Z,13.60
2022-11-14T09:25:59.864Z,13.40
2022-11-14T09:28:27.413Z,14.63
2022-11-14T09:30:54.933Z,13.23
2022-11-14T09:33:22.451Z,14.82
2022-11-14T09:35:49.961Z,13.40
2022-11-14T09:38:17.474Z,12.57
2022-11-14T09:40:55.640Z,13.13
2022-11-14T09:43:39.503Z,11.63
2022-11-14T09:46:17.419Z,11.70
2022-11-14T09:48:45.029Z,11.30
2022-11-14T09:51:17.673Z,13.60
2022-11-14T09:53:53.205Z,9.57
2022-11-14T09:56:24.522Z,11.20
2022-11-14T09:58:55.505Z,12.48
2022-11-14T10:01:33.206Z,18.50
2022-11-14T10:04:11.113Z,17.13
2022-11-14T10:06:47.731Z,21.23
2022-11-14T10:09:44.998Z,19.15
2022-11-14T10:12:16.289Z,19.13
2022-11-14T10:15:12.529Z,22.70
2022-11-14T10:17:58.369Z,19.38
2022-11-14T10:20:34.007Z,19.40
2022-11-14T10:23:14.639Z,21.90
2022-11-14T10:25:55.399Z,15.60
2022-11-14T10:28:44.795Z,16.88
2022-11-14T10:31:23.921Z,19.58
2022-11-14T10:33:58.697Z,18.75
2022-11-14T10:36:41.921Z,17.58
2022-11-14T10:39:17.395Z,16.33
2022-11-14T10:42:06.158Z,14.50
2022-11-14T10:44:39.600Z,13.15
2022-11-14T10:47:13.920Z,10.77
2022-11-14T10:49:41.768Z,8.40
2022-11-14T10:52:15.930Z,8.40
2022-11-14T10:54:48.964Z,10.10
2022-11-14T10:57:18.857Z,8.43
2022-11-14T10:59:47.253Z,7.65
2022-11-14T11:02:16.830Z,8.18
2022-11-14T11:04:46.168Z,10.32
2022-11-14T11:07:41.862Z,10.50
2022-11-14T11:10:38.781Z,11.98
2022-11-14T11:13:06.694Z,11.05
2022-11-14T11:15:41.688Z,13.75
2022-11-14T11:18:26.813Z,13.68
2022-11-14T11:21:05.650Z,13.73
2022-11-14T11:23:33.535Z,13.77
2022-11-14T11:26:05.646Z,16.83
2022-11-14T11:28:34.477Z,19.67
2022-11-14T11:31:03.546Z,16.05
2022-11-14T11:33:34.433Z,17.15
2022-11-14T11:36:05.468Z,31.77
2022-11-14T11:38:34.878Z,29.80
2022-11-14T11:41:15.451Z,27.90
2022-11-14T11:43:58.175Z,19.35
2022-11-14T11:46:34.019Z,26.98
2022-11-14T11:49:12.021Z,26.23
2022-11-14T11:51:46.768Z,32.60
2022-11-14T11:54:17.409Z,34.15
2022-11-14T11:56:47.252Z,24.88
2022-11-14T11:59:26.834Z,20.95
2022-11-14T12:01:54.543Z,28.10
2022-11-14T12:04:23.451Z,27.85
2022-11-14T12:06:56.811Z,26.67
2022-11-14T12:10:03.214Z,26.77
2022-11-14T12:12:26.473Z,28.92
2022-11-14T12:15:09.009Z,31.20
2022-11-14T12:18:05.686Z,27.00
2022-11-14T12:21:09.250Z,24.45
2022-11-14T12:24:12.630Z,36.42
2022-11-14T12:27:01.688Z,38.22
2022-11-14T12:29:47.546Z,33.33
2022-11-14T12:32:20.105Z,30.25
2022-11-14T12:34:49.123Z,35.78
2022-11-14T12:37:20.009Z,38.47
2022-11-14T12:39:58.142Z,37.53
2022-11-14T12:42:27.264Z,38.20
2022-11-14T12:44:54.893Z,39.03
2022-11-14T12:47:23.918Z,37.83
2022-11-14T12:50:42.097Z,18.52
2022-11-14T12:53:42.067Z,15.63
2022-11-14T12:56:46.861Z,14.60
2022-11-14T12:59:35.899Z,10.73
2022-11-14T13:02:26.713Z,9.63
2022-11-14T13:05:24.186Z,8.27
2022-11-14T13:08:05.258Z,7.63
2022-11-14T13:10:38.399Z,8.65
2022-11-14T13:13:25.960Z,8.43
2022-11-14T13:16:14.167Z,7.47
2022-11-14T13:19:11.263Z,6.07
2022-11-14T13:21:48.092Z,5.35
2022-11-14T13:24:17.126Z,5.63
2022-11-14T13:26:46.907Z,6.18
2022-11-14T13:29:58.044Z,7.97
2022-11-14T13:33:01.939Z,6.82
2022-11-14T13:35:43.408Z,5.47
2022-11-14T13:39:03.536Z,6.03
2022-11-14T13:42:07.329Z,6.53
2022-11-14T13:45:10.048Z,6.95
2022-11-14T13:48:00.014Z,9.48
2022-11-14T13:50:32.293Z,7.38
2022-11-14T13:53:01.275Z,5.88
2022-11-14T13:55:38.942Z,7.97
2022-11-14T13:58:19.655Z,7.05
2022-11-14T14:01:07.875Z,7.45
2022-11-14T14:03:48.242Z,9.90
2022-11-14T14:06:36.641Z,10.82
2022-11-14T14:09:20.370Z,9.07
2022-11-14T14:11:59.387Z,11.38
2022-11-14T14:14:43.198Z,8.18
2022-11-14T14:17:16.138Z,7.13
2022-11-14T14:20:00.687Z,6.32
2022-11-14T14:22:36.266Z,8.02
2022-11-14T14:25:15.927Z,8.77
2022-11-14T14:27:57.454Z,9.13
2022-11-14T14:30:25.473Z,8.38
2022-11-14T14:33:12.491Z,5.55
2022-11-14T14:35:41.140Z,5.75
2022-11-14T14:38:13.606Z,7.15
2022-11-14T14:40:43.380Z,7.20
2022-11-14T14:43:23.069Z,6.40
2022-11-14T14:45:54.728Z,9.32
2022-11-14T14:48:25.833Z,11.35
2022-11-14T14:50:55.160Z,11.25
2022-11-14T14:53:24.829Z,12.52
2022-11-14T14:55:55.856Z,11.43
2022-11-14T14:58:26.958Z,12.88
2022-11-14T15:00:57.073Z,13.70
2022-11-14T15:03:26.823Z,12.32
2022-11-14T15:06:01.655Z,12.73
2022-11-14T15:08:30.987Z,12.73
2022-11-14T15:11:01.644Z,12.55
2022-11-14T15:13:32.076Z,14.65
2022-11-14T15:15:59.888Z,14.30
2022-11-14T15:18:29.826Z,17.60
2022-11-14T15:21:18.010Z,16.83
2022-11-14T15:23:45.791Z,13.98
2022-11-14T15:26:17.911Z,12.30
2022-11-14T15:28:46.217Z,12.73
2022-11-14T15:31:19.794Z,9.65
2022-11-14T15:34:00.758Z,10.77
2022-11-14T15:36:28.303Z,12.90
2022-11-14T15:39:01.278Z,12.80
2022-11-14T15:41:31.381Z,18.60
2022-11-14T15:44:02.861Z,15.77
2022-11-14T15:46:44.355Z,26.63
2022-11-14T15:49:21.470Z,21.57
2022-11-14T15:51:52.744Z,24.67
2022-11-14T15:54:25.949Z,49.17
2022-11-14T15:56:56.892Z,30.67
2022-11-14T15:59:25.257Z,30.67
2022-11-14T16:01:55.984Z,16.50
2022-11-14T16:04:29.800Z,14.67
2022-11-14T16:06:57.402Z,21.20
2022-11-14T16:09:25.059Z,38.47
2022-11-14T16:11:52.595Z,29.17
2022-11-14T16:14:21.450Z,23.57
2022-11-14T16:16:48.978Z,20.37
2022-11-14T16:19:17.870Z,23.30
2022-11-14T16:21:45.673Z,14.90
2022-11-14T16:24:17.893Z,15.00
2022-11-14T16:26:45.498Z,7.93
2022-11-14T16:29:13.038Z,8.33
2022-11-14T16:31:42.241Z,11.60
2022-11-14T16:34:14.968Z,12.87
2022-11-14T16:36:45.133Z,17.90
2022-11-14T16:39:13.594Z,18.87
2022-11-14T16:41:41.271Z,17.73
2022-11-14T16:44:14.805Z,14.27
2022-11-14T16:46:43.781Z,29.03
2022-11-14T16:49:15.046Z,33.27
2022-11-14T16:51:48.509Z,33.13
2022-11-14T16:54:17.511Z,31.50
2022-11-14T16:56:45.019Z,25.13
2022-11-14T16:59:12.826Z,31.17
2022-11-14T17:01:40.486Z,28.77
2022-11-14T17:04:09.443Z,19.47
2022-11-14T17:06:36.979Z,23.10
2022-11-14T17:09:04.748Z,24.30
2022-11-14T17:11:32.329Z,28.17
2022-11-14T17:13:59.820Z,35.03
2022-11-14T17:16:27.328Z,36.70
2022-11-14T17:18:55.473Z,34.93
2022-11-14T17:21:26.323Z,25.37
2022-11-14T17:23:57.045Z,17.43
2022-11-14T17:26:25.119Z,21.70
2022-11-14T17:28:53.064Z,22.93
2022-11-14T17:31:20.858Z,26.10
2022-11-14T17:33:52.451Z,33.17
2022-11-14T17:36:20.151Z,19.80
2022-11-14T17:38:49.027Z,30.63
2022-11-14T17:41:16.612Z,32.23
2022-11-14T17:43:44.461Z,27.87
2022-11-14T17:46:15.856Z,30.27
2022-11-14T17:48:43.724Z,32.57
2022-11-14T17:51:13.576Z,33.57
2022-11-14T17:53:44.601Z,38.17
2022-11-14T17:56:15.887Z,42.87
2022-11-14T17:58:44.279Z,35.60
2022-11-14T18:01:12.636Z,37.63
2022-11-14T18:03:40.285Z,38.67
2022-11-14T18:06:09.334Z,33.00
2022-11-14T18:08:37.395Z,36.37
2022-11-14T18:11:06.924Z,36.27
2022-11-14T18:13:36.008Z,39.57
2022-11-14T18:16:05.547Z,30.60
2022-11-14T18:18:34.285Z,27.73
2022-11-14T18:21:07.366Z,34.27
2022-11-14T18:23:36.179Z,25.83
2022-11-14T18:26:10.037Z,27.20
2022-11-14T18:28:38.910Z,39.00
2022-11-14T18:31:08.311Z,33.50
2022-11-14T18:33:36.415Z,27.77
2022-11-14T18:36:05.931Z,45.93
2022-11-14T18:38:33.962Z,33.27
2022-11-14T18:41:04.099Z,32.83
2022-11-14T18:43:33.216Z,26.97
2022-11-14T18:46:07.612Z,30.30
2022-11-14T18:48:35.765Z,25.57
2022-11-14T18:51:04.459Z,27.33
2022-11-14T18:53:33.200Z,24.53
2022-11-14T18:56:04.428Z,24.37
2022-11-14T18:58:32.046Z,34.40
2022-11-14T19:00:59.689Z,34.60
2022-11-14T19:03:29.558Z,30.50
2022-11-14T19:06:02.425Z,30.83
2022-11-14T19:08:29.998Z,33.63
2022-11-14T19:11:01.650Z,26.70
2022-11-14T19:13:29.538Z,27.07
2022-11-14T19:16:02.258Z,83.80
2022-11-14T19:18:32.495Z,76.57
2022-11-14T19:21:01.396Z,43.33
2022-11-14T19:23:29.866Z,69.77
2022-11-14T19:25:59.809Z,63.80
2022-11-14T19:28:27.707Z,45.33
2022-11-14T19:30:55.229Z,51.60
2022-11-14T19:33:22.741Z,92.90
2022-11-14T19:35:51.635Z,45.57
2022-11-14T19:38:19.170Z,39.70
2022-11-14T19:40:50.818Z,35.87
2022-11-14T19:43:18.737Z,36.40
2022-11-14T19:45:46.436Z,40.30
2022-11-14T19:48:14.045Z,34.00
2022-11-14T19:50:41.554Z,29.13
2022-11-14T19:53:10.513Z,26.33
2022-11-14T19:55:38.060Z,29.67
2022-11-14T19:58:05.563Z,32.50
2022-11-14T20:00:33.128Z,32.97
2022-11-14T20:03:00.681Z,24.00
2022-11-14T20:05:28.194Z,29.70
2022-11-14T20:07:55.716Z,49.20
2022-11-14T20:10:24.588Z,33.67
2022-11-14T20:12:52.111Z,61.37
2022-11-14T20:15:19.645Z,66.53
2022-11-14T20:17:47.150Z,88.17
2022-11-14T20:20:14.760Z,61.90
2022-11-14T20:22:42.300Z,79.50
2022-11-14T20:25:10.108Z,39.20
2022-11-14T20:27:39.074Z,30.47
2022-11-14T20:30:07.762Z,34.07
2022-11-14T20:32:35.285Z,33.47
2022-11-14T20:35:02.834Z,35.03
2022-11-14T20:37:30.372Z,31.37
2022-11-14T20:39:57.920Z,27.03
2022-11-14T20:42:25.433Z,26.87
2022-11-14T20:44:54.267Z,40.27
2022-11-14T20:47:22.534Z,24.87
2022-11-14T20:49:50.273Z,26.23
2022-11-14T20:52:18.651Z,27.80
2022-11-14T20:54:46.201Z,24.50
2022-11-14T20:57:13.840Z,23.53
2022-11-14T20:59:41.390Z,21.97
2022-11-14T21:02:12.599Z,21.93
2022-11-14T21:04:40.203Z,22.87
2022-11-14T21:07:07.864Z,25.73
2022-11-14T21:09:35.417Z,23.73
2022-11-14T21:12:02.939Z,24.50
2022-11-14T21:14:30.458Z,25.80
2022-11-14T21:16:58.200Z,31.17
2022-11-14T21:19:28.989Z,25.40
2022-11-14T21:21:56.510Z,27.27
2022-11-14T21:24:24.067Z,30.90
2022-11-14T21:26:51.663Z,29.87
2022-11-14T21:29:19.197Z,35.07
2022-11-14T21:31:47.575Z,56.70
2022-11-14T21:34:17.895Z,34.87
2022-11-14T21:36:48.094Z,26.00
2022-11-14T21:39:17.464Z,26.73
2022-11-14T21:41:48.156Z,25.27
2022-11-14T21:44:17.660Z,26.73
2022-11-14T21:46:47.012Z,22.63
2022-11-14T21:49:14.854Z,21.77
2022-11-14T21:51:42.456Z,22.13
2022-11-14T21:54:11.373Z,21.67
2022-11-14T21:56:38.957Z,20.13
2022-11-14T21:59:14.450Z,19.23
2022-11-14T22:02:01.473Z,19.03
2022-11-14T22:04:29.301Z,20.37
2022-11-14T22:06:57.056Z,22.10
2022-11-14T22:09:27.868Z,18.57
2022-11-14T22:11:55.686Z,38.07
2022-11-14T22:14:23.236Z,25.67
2022-11-14T22:16:50.746Z,20.10
2022-11-14T22:19:18.749Z,19.93
2022-11-14T22:21:46.517Z,18.73
2022-11-14T22:24:14.052Z,26.00
2022-11-14T22:26:42.928Z,26.53
2022-11-14T22:29:10.473Z,30.53
2022-11-14T22:31:38.817Z,23.03
2022-11-14T22:34:06.365Z,23.03
2022-11-14T22:36:33.976Z,20.93
2022-11-14T22:39:01.679Z,19.63
2022-11-14T22:41:33.028Z,124.83
2022-11-14T22:44:02.919Z,62.07
2022-11-14T22:46:30.677Z,28.93
2022-11-14T22:48:58.607Z,23.70
2022-11-14T22:51:27.629Z,23.03
2022-11-14T22:53:57.167Z,31.67
2022-11-14T22:56:26.858Z,39.13
2022-11-14T22:58:54.645Z,34.13
2022-11-14T23:01:25.678Z,22.03
2022-11-14T23:03:57.427Z,24.93
2022-11-14T23:06:25.943Z,25.73
2022-11-14T23:08:53.860Z,25.40
2022-11-14T23:11:23.682Z,24.77
2022-11-14T23:13:53.383Z,28.07
2022-11-14T23:16:23.918Z,25.03
2022-11-14T23:18:53.773Z,27.80
2022-11-14T23:21:23.422Z,24.70
2022-11-14T23:23:53.914Z,29.00
2022-11-14T23:26:21.971Z,23.63
2022-11-14T23:28:49.517Z,34.30
2022-11-14T23:31:19.197Z,27.43
2022-11-14T23:33:48.254Z,24.57
2022-11-14T23:36:16.519Z,26.03
2022-11-14T23:38:44.215Z,33.30
2022-11-14T23:41:17.656Z,28.03
2022-11-14T23:43:45.295Z,23.73
2022-11-14T23:46:12.883Z,23.00
2022-11-14T23:48:40.616Z,23.97
2022-11-14T23:51:10.550Z,23.90
2022-11-14T23:53:38.139Z,22.73
2022-11-14T23:56:06.223Z,22.40
2022-11-14T23:58:33.796Z,24.60
